windsock image

Welcome to Bigfield Strip.

anemometer image
     

 Help for dials.  
 
Local Met:

Wind:   
10 Min average:  
231 ° / 3.6 kts (3.5)
245° / 3.3

Temperature:  
12.3°C C
Dew Point:  
9.9°C C
QNH:  
Trend:  
1019.4 mb mb
+0.4mb/hr
BigField Strip. This image updates approximately every minute, it can have a two minute delay.  
 

Humidity:  
85 %
Sunrise:   06:45z
Sunset:   16:49z
Updated:  
  UTC
 
   More met info, trends, radar, history etc. available here   

LUTON Metar   EGGW 252050Z 19006KT 140V230 9999 BKN030 11/09 Q1020
 
  TAF   2014/10/25 18:15 TAF EGGW 251658Z 2518/2618 21008KT 9999 SCT035 PROB30 2606/2609 7000
 
BENSON Metar   EGUB 251950Z AUTO 18009KT 9999 // OVC034/// 13/08 Q1019
 
  TAF   2014/10/25 15:12 TAF EGUB 251336Z 2515/2518 20008KT 9999 SCT040
 
Big Field view 1 icon   Big Field view 2 icon   Big Field view 3 icon   Chart AL3a in PDF icon   Chart AL3a in Word icon

WARNING:
This information is provided by the Airstrip unofficial weather station, DO NOT depend on the data provided here for any purpose.
This page is updated for latest Metars & TAF's every 5 minutes. Refresh the browser to check for the lastest.
Page designed for a minimum browser size of 1024x768.
© Copyright 2014 BigField Strip. This page auto generated 21:06 UTC - 25/10/2014   Contact Us
Valid HTML 4.01 Transitional     Windows uptime: 5 Days 18 Hours 34 Minutes 25 Seconds    WD started: 02:37 20/10/14    Free memory: 1509MB     Valid CSS!